sensor_id;sensor_type;location;lat;lon;timestamp;P1;durP1;ratioP1;P2;durP2;ratioP2
20671;SDS011;10495;50.922;4.760;2022-12-29T00:01:39;1.43;;;1.20;;
20671;SDS011;10495;50.922;4.760;2022-12-29T00:04:05;2.13;;;1.37;;
20671;SDS011;10495;50.922;4.760;2022-12-29T00:06:31;2.47;;;1.50;;
20671;SDS011;10495;50.922;4.760;2022-12-29T00:08:57;1.30;;;1.20;;
20671;SDS011;10495;50.922;4.760;2022-12-29T00:11:23;1.40;;;1.20;;
20671;SDS011;10495;50.922;4.760;2022-12-29T00:13:51;1.37;;;1.10;;
20671;SDS011;10495;50.922;4.760;2022-12-29T00:16:36;1.53;;;0.90;;
20671;SDS011;10495;50.922;4.760;2022-12-29T00:19:03;1.40;;;1.07;;
20671;SDS011;10495;50.922;4.760;2022-12-29T00:21:29;4.37;;;1.30;;
20671;SDS011;10495;50.922;4.760;2022-12-29T00:24:15;2.17;;;0.93;;
20671;SDS011;10495;50.922;4.760;2022-12-29T00:29:48;2.03;;;1.00;;
20671;SDS011;10495;50.922;4.760;2022-12-29T00:32:32;2.27;;;1.10;;
20671;SDS011;10495;50.922;4.760;2022-12-29T00:35:23;1.73;;;0.80;;
20671;SDS011;10495;50.922;4.760;2022-12-29T00:37:52;3.07;;;0.70;;
20671;SDS011;10495;50.922;4.760;2022-12-29T00:40:37;2.03;;;0.97;;
20671;SDS011;10495;50.922;4.760;2022-12-29T00:43:21;2.27;;;0.83;;
20671;SDS011;10495;50.922;4.760;2022-12-29T00:46:05;2.73;;;1.03;;
20671;SDS011;10495;50.922;4.760;2022-12-29T00:48:30;1.10;;;1.00;;
20671;SDS011;10495;50.922;4.760;2022-12-29T00:51:14;2.53;;;0.80;;
20671;SDS011;10495;50.922;4.760;2022-12-29T00:53:40;2.37;;;1.00;;
20671;SDS011;10495;50.922;4.760;2022-12-29T00:56:06;1.40;;;0.93;;
20671;SDS011;10495;50.922;4.760;2022-12-29T00:58:31;1.13;;;0.70;;
20671;SDS011;10495;50.922;4.760;2022-12-29T01:01:04;2.10;;;1.00;;
20671;SDS011;10495;50.922;4.760;2022-12-29T01:03:31;3.27;;;1.07;;
20671;SDS011;10495;50.922;4.760;2022-12-29T01:06:01;2.20;;;1.00;;
20671;SDS011;10495;50.922;4.760;2022-12-29T01:08:28;1.43;;;0.93;;
20671;SDS011;10495;50.922;4.760;2022-12-29T01:11:07;1.73;;;0.80;;
20671;SDS011;10495;50.922;4.760;2022-12-29T01:13:37;2.33;;;1.03;;
20671;SDS011;10495;50.922;4.760;2022-12-29T01:16:04;2.03;;;1.10;;
20671;SDS011;10495;50.922;4.760;2022-12-29T01:18:30;1.43;;;0.90;;
20671;SDS011;10495;50.922;4.760;2022-12-29T01:20:59;1.27;;;0.87;;
20671;SDS011;10495;50.922;4.760;2022-12-29T01:23:26;3.23;;;1.20;;
20671;SDS011;10495;50.922;4.760;2022-12-29T01:25:52;2.30;;;0.93;;
20671;SDS011;10495;50.922;4.760;2022-12-29T01:28:18;2.60;;;0.83;;
20671;SDS011;10495;50.922;4.760;2022-12-29T01:30:44;2.37;;;1.00;;
20671;SDS011;10495;50.922;4.760;2022-12-29T01:33:09;1.63;;;0.90;;
20671;SDS011;10495;50.922;4.760;2022-12-29T01:35:35;3.00;;;1.43;;
20671;SDS011;10495;50.922;4.760;2022-12-29T01:38:01;3.23;;;1.00;;
20671;SDS011;10495;50.922;4.760;2022-12-29T01:40:26;2.20;;;1.90;;
20671;SDS011;10495;50.922;4.760;2022-12-29T01:42:53;2.30;;;1.00;;
20671;SDS011;10495;50.922;4.760;2022-12-29T01:45:18;5.50;;;1.07;;
20671;SDS011;10495;50.922;4.760;2022-12-29T01:47:48;2.27;;;1.13;;
20671;SDS011;10495;50.922;4.760;2022-12-29T01:50:17;2.40;;;1.20;;
20671;SDS011;10495;50.922;4.760;2022-12-29T01:55:40;4.23;;;1.10;;
20671;SDS011;10495;50.922;4.760;2022-12-29T01:58:11;2.33;;;1.67;;
20671;SDS011;10495;50.922;4.760;2022-12-29T02:00:39;1.73;;;0.93;;
20671;SDS011;10495;50.922;4.760;2022-12-29T02:03:05;4.33;;;1.30;;
20671;SDS011;10495;50.922;4.760;2022-12-29T02:08:02;2.03;;;1.17;;
20671;SDS011;10495;50.922;4.760;2022-12-29T02:10:29;4.63;;;1.50;;
20671;SDS011;10495;50.922;4.760;2022-12-29T02:12:57;1.43;;;1.00;;
20671;SDS011;10495;50.922;4.760;2022-12-29T02:15:27;1.40;;;0.90;;
20671;SDS011;10495;50.922;4.760;2022-12-29T02:20:41;2.73;;;0.60;;
20671;SDS011;10495;50.922;4.760;2022-12-29T02:23:38;1.63;;;0.83;;
20671;SDS011;10495;50.922;4.760;2022-12-29T02:32:35;3.20;;;0.60;;
20671;SDS011;10495;50.922;4.760;2022-12-29T02:35:12;1.00;;;0.60;;
20671;SDS011;10495;50.922;4.760;2022-12-29T02:43:19;0.40;;;0.37;;
20671;SDS011;10495;50.922;4.760;2022-12-29T02:45:54;5.43;;;1.10;;
20671;SDS011;10495;50.922;4.760;2022-12-29T02:48:38;0.93;;;0.63;;
20671;SDS011;10495;50.922;4.760;2022-12-29T02:51:10;1.30;;;0.50;;
20671;SDS011;10495;50.922;4.760;2022-12-29T02:53:43;2.33;;;0.60;;
20671;SDS011;10495;50.922;4.760;2022-12-29T02:56:29;0.63;;;0.60;;
20671;SDS011;10495;50.922;4.760;2022-12-29T02:58:54;2.17;;;0.60;;
20671;SDS011;10495;50.922;4.760;2022-12-29T03:10:28;3.63;;;0.60;;
20671;SDS011;10495;50.922;4.760;2022-12-29T03:15:22;5.33;;;0.50;;
20671;SDS011;10495;50.922;4.760;2022-12-29T03:18:19;3.13;;;0.70;;
20671;SDS011;10495;50.922;4.760;2022-12-29T03:20:50;1.47;;;0.40;;
20671;SDS011;10495;50.922;4.760;2022-12-29T03:23:19;1.50;;;0.50;;
20671;SDS011;10495;50.922;4.760;2022-12-29T03:25:47;1.47;;;0.50;;
20671;SDS011;10495;50.922;4.760;2022-12-29T03:28:18;2.00;;;0.40;;
20671;SDS011;10495;50.922;4.760;2022-12-29T03:30:47;2.90;;;0.50;;
20671;SDS011;10495;50.922;4.760;2022-12-29T03:33:14;1.10;;;0.50;;
20671;SDS011;10495;50.922;4.760;2022-12-29T03:35:44;1.70;;;0.70;;
20671;SDS011;10495;50.922;4.760;2022-12-29T03:41:00;1.67;;;0.60;;
20671;SDS011;10495;50.922;4.760;2022-12-29T03:43:31;0.63;;;0.40;;
20671;SDS011;10495;50.922;4.760;2022-12-29T03:45:57;0.47;;;0.40;;
20671;SDS011;10495;50.922;4.760;2022-12-29T03:48:23;0.63;;;0.40;;
20671;SDS011;10495;50.922;4.760;2022-12-29T03:50:48;1.33;;;0.50;;
20671;SDS011;10495;50.922;4.760;2022-12-29T03:53:14;1.47;;;0.60;;
20671;SDS011;10495;50.922;4.760;2022-12-29T03:55:40;5.33;;;0.80;;
20671;SDS011;10495;50.922;4.760;2022-12-29T03:58:05;0.73;;;0.60;;
20671;SDS011;10495;50.922;4.760;2022-12-29T04:00:31;2.93;;;0.80;;
20671;SDS011;10495;50.922;4.760;2022-12-29T04:02:56;2.30;;;0.57;;
20671;SDS011;10495;50.922;4.760;2022-12-29T04:05:22;0.90;;;0.70;;
20671;SDS011;10495;50.922;4.760;2022-12-29T04:07:48;3.13;;;0.70;;
20671;SDS011;10495;50.922;4.760;2022-12-29T04:10:13;1.80;;;0.90;;
20671;SDS011;10495;50.922;4.760;2022-12-29T04:12:39;2.07;;;0.63;;
20671;SDS011;10495;50.922;4.760;2022-12-29T04:15:06;6.27;;;1.20;;
20671;SDS011;10495;50.922;4.760;2022-12-29T04:17:33;4.90;;;1.03;;
20671;SDS011;10495;50.922;4.760;2022-12-29T04:19:58;3.40;;;1.00;;
20671;SDS011;10495;50.922;4.760;2022-12-29T04:22:44;3.80;;;0.67;;
20671;SDS011;10495;50.922;4.760;2022-12-29T04:25:09;3.67;;;1.07;;
20671;SDS011;10495;50.922;4.760;2022-12-29T04:27:35;3.70;;;1.20;;
20671;SDS011;10495;50.922;4.760;2022-12-29T04:30:00;4.80;;;0.80;;
20671;SDS011;10495;50.922;4.760;2022-12-29T04:32:26;3.87;;;0.90;;
20671;SDS011;10495;50.922;4.760;2022-12-29T04:34:52;3.33;;;0.90;;
20671;SDS011;10495;50.922;4.760;2022-12-29T04:37:17;2.83;;;1.00;;
20671;SDS011;10495;50.922;4.760;2022-12-29T04:39:43;4.93;;;1.70;;
20671;SDS011;10495;50.922;4.760;2022-12-29T04:42:08;4.60;;;1.10;;
20671;SDS011;10495;50.922;4.760;2022-12-29T04:44:34;1.50;;;0.53;;
20671;SDS011;10495;50.922;4.760;2022-12-29T04:46:59;3.23;;;0.80;;
20671;SDS011;10495;50.922;4.760;2022-12-29T04:49:25;3.90;;;0.80;;
20671;SDS011;10495;50.922;4.760;2022-12-29T04:51:50;4.40;;;0.97;;
20671;SDS011;10495;50.922;4.760;2022-12-29T04:54:16;4.80;;;0.97;;
20671;SDS011;10495;50.922;4.760;2022-12-29T04:56:42;2.37;;;0.80;;
20671;SDS011;10495;50.922;4.760;2022-12-29T04:59:07;2.63;;;0.80;;
20671;SDS011;10495;50.922;4.760;2022-12-29T05:01:33;3.40;;;0.80;;
20671;SDS011;10495;50.922;4.760;2022-12-29T05:03:58;2.70;;;1.10;;
20671;SDS011;10495;50.922;4.760;2022-12-29T05:06:24;1.97;;;0.90;;
20671;SDS011;10495;50.922;4.760;2022-12-29T05:08:49;4.30;;;0.90;;
20671;SDS011;10495;50.922;4.760;2022-12-29T05:11:15;2.80;;;1.10;;
20671;SDS011;10495;50.922;4.760;2022-12-29T05:13:41;4.83;;;1.20;;
20671;SDS011;10495;50.922;4.760;2022-12-29T05:16:09;2.87;;;0.90;;
20671;SDS011;10495;50.922;4.760;2022-12-29T05:18:35;6.13;;;0.90;;
20671;SDS011;10495;50.922;4.760;2022-12-29T05:21:00;6.37;;;1.17;;
20671;SDS011;10495;50.922;4.760;2022-12-29T05:23:26;5.13;;;1.20;;
20671;SDS011;10495;50.922;4.760;2022-12-29T05:25:51;2.13;;;0.97;;
20671;SDS011;10495;50.922;4.760;2022-12-29T05:28:17;2.57;;;1.00;;
20671;SDS011;10495;50.922;4.760;2022-12-29T05:30:42;3.27;;;1.10;;
20671;SDS011;10495;50.922;4.760;2022-12-29T05:33:08;5.73;;;1.77;;
20671;SDS011;10495;50.922;4.760;2022-12-29T05:35:36;3.87;;;0.93;;
20671;SDS011;10495;50.922;4.760;2022-12-29T05:38:02;3.57;;;1.10;;
20671;SDS011;10495;50.922;4.760;2022-12-29T05:40:27;4.10;;;0.80;;
20671;SDS011;10495;50.922;4.760;2022-12-29T05:42:53;4.30;;;1.10;;
20671;SDS011;10495;50.922;4.760;2022-12-29T05:45:18;4.97;;;1.57;;
20671;SDS011;10495;50.922;4.760;2022-12-29T05:47:44;4.87;;;1.43;;
20671;SDS011;10495;50.922;4.760;2022-12-29T05:50:09;5.87;;;1.03;;
20671;SDS011;10495;50.922;4.760;2022-12-29T05:52:35;2.67;;;0.90;;
20671;SDS011;10495;50.922;4.760;2022-12-29T05:55:01;6.07;;;2.00;;
20671;SDS011;10495;50.922;4.760;2022-12-29T05:57:26;4.30;;;1.40;;
20671;SDS011;10495;50.922;4.760;2022-12-29T05:59:52;10.03;;;1.70;;
20671;SDS011;10495;50.922;4.760;2022-12-29T06:02:17;4.50;;;1.23;;
20671;SDS011;10495;50.922;4.760;2022-12-29T06:04:43;2.77;;;1.10;;
20671;SDS011;10495;50.922;4.760;2022-12-29T06:07:09;4.97;;;1.53;;
20671;SDS011;10495;50.922;4.760;2022-12-29T06:09:34;5.47;;;2.00;;
20671;SDS011;10495;50.922;4.760;2022-12-29T06:12:00;5.83;;;1.63;;
20671;SDS011;10495;50.922;4.760;2022-12-29T06:14:26;8.30;;;1.90;;
20671;SDS011;10495;50.922;4.760;2022-12-29T06:16:51;5.87;;;1.17;;
20671;SDS011;10495;50.922;4.760;2022-12-29T06:19:17;5.37;;;1.30;;
20671;SDS011;10495;50.922;4.760;2022-12-29T06:21:42;4.10;;;1.13;;
20671;SDS011;10495;50.922;4.760;2022-12-29T06:24:08;1.70;;;0.83;;
20671;SDS011;10495;50.922;4.760;2022-12-29T06:26:35;4.10;;;1.27;;
20671;SDS011;10495;50.922;4.760;2022-12-29T06:29:01;5.10;;;1.40;;
20671;SDS011;10495;50.922;4.760;2022-12-29T06:31:27;4.17;;;1.50;;
20671;SDS011;10495;50.922;4.760;2022-12-29T06:33:53;6.63;;;1.73;;
20671;SDS011;10495;50.922;4.760;2022-12-29T06:36:19;6.60;;;1.27;;
20671;SDS011;10495;50.922;4.760;2022-12-29T06:38:44;9.10;;;1.87;;
20671;SDS011;10495;50.922;4.760;2022-12-29T06:41:10;7.17;;;1.63;;
20671;SDS011;10495;50.922;4.760;2022-12-29T06:43:35;9.67;;;1.57;;
20671;SDS011;10495;50.922;4.760;2022-12-29T06:46:03;6.90;;;1.73;;
20671;SDS011;10495;50.922;4.760;2022-12-29T06:48:29;9.00;;;1.30;;
20671;SDS011;10495;50.922;4.760;2022-12-29T06:50:55;7.00;;;1.20;;
20671;SDS011;10495;50.922;4.760;2022-12-29T06:53:20;5.17;;;1.83;;
20671;SDS011;10495;50.922;4.760;2022-12-29T06:55:46;7.07;;;1.47;;
20671;SDS011;10495;50.922;4.760;2022-12-29T06:58:12;6.20;;;1.23;;
20671;SDS011;10495;50.922;4.760;2022-12-29T07:00:38;6.50;;;1.60;;
20671;SDS011;10495;50.922;4.760;2022-12-29T07:03:03;6.13;;;1.70;;
20671;SDS011;10495;50.922;4.760;2022-12-29T07:05:29;7.73;;;1.30;;
20671;SDS011;10495;50.922;4.760;2022-12-29T07:07:56;5.20;;;1.47;;
20671;SDS011;10495;50.922;4.760;2022-12-29T07:10:22;8.93;;;1.77;;
20671;SDS011;10495;50.922;4.760;2022-12-29T07:12:48;6.63;;;1.40;;
20671;SDS011;10495;50.922;4.760;2022-12-29T07:15:13;7.47;;;2.23;;
20671;SDS011;10495;50.922;4.760;2022-12-29T07:17:39;8.17;;;1.53;;
20671;SDS011;10495;50.922;4.760;2022-12-29T07:20:05;9.37;;;1.50;;
20671;SDS011;10495;50.922;4.760;2022-12-29T07:22:31;4.37;;;1.33;;
20671;SDS011;10495;50.922;4.760;2022-12-29T07:24:57;7.63;;;1.60;;
20671;SDS011;10495;50.922;4.760;2022-12-29T07:27:22;6.07;;;1.77;;
20671;SDS011;10495;50.922;4.760;2022-12-29T07:29:48;5.77;;;1.20;;
20671;SDS011;10495;50.922;4.760;2022-12-29T07:32:14;10.47;;;1.50;;
20671;SDS011;10495;50.922;4.760;2022-12-29T07:34:39;5.47;;;1.80;;
20671;SDS011;10495;50.922;4.760;2022-12-29T07:37:05;9.20;;;1.53;;
20671;SDS011;10495;50.922;4.760;2022-12-29T07:39:31;6.57;;;1.40;;
20671;SDS011;10495;50.922;4.760;2022-12-29T07:41:56;5.27;;;1.50;;
20671;SDS011;10495;50.922;4.760;2022-12-29T07:44:22;7.37;;;2.20;;
20671;SDS011;10495;50.922;4.760;2022-12-29T07:46:47;5.13;;;1.40;;
20671;SDS011;10495;50.922;4.760;2022-12-29T07:49:13;5.77;;;1.73;;
20671;SDS011;10495;50.922;4.760;2022-12-29T07:51:38;7.23;;;1.60;;
20671;SDS011;10495;50.922;4.760;2022-12-29T07:54:04;4.20;;;1.60;;
20671;SDS011;10495;50.922;4.760;2022-12-29T07:56:30;6.07;;;1.43;;
20671;SDS011;10495;50.922;4.760;2022-12-29T07:58:55;5.63;;;1.50;;
20671;SDS011;10495;50.922;4.760;2022-12-29T08:01:21;7.47;;;1.57;;
20671;SDS011;10495;50.922;4.760;2022-12-29T08:03:48;7.03;;;1.83;;
20671;SDS011;10495;50.922;4.760;2022-12-29T08:06:13;10.83;;;2.13;;
20671;SDS011;10495;50.922;4.760;2022-12-29T08:08:40;7.63;;;2.00;;
20671;SDS011;10495;50.922;4.760;2022-12-29T08:11:05;8.00;;;1.63;;
20671;SDS011;10495;50.922;4.760;2022-12-29T08:13:31;9.10;;;2.20;;
20671;SDS011;10495;50.922;4.760;2022-12-29T08:15:59;7.83;;;1.73;;
20671;SDS011;10495;50.922;4.760;2022-12-29T08:18:25;4.33;;;1.57;;
20671;SDS011;10495;50.922;4.760;2022-12-29T08:20:50;8.40;;;1.77;;
20671;SDS011;10495;50.922;4.760;2022-12-29T08:23:16;7.13;;;2.83;;
20671;SDS011;10495;50.922;4.760;2022-12-29T08:25:42;5.90;;;1.87;;
20671;SDS011;10495;50.922;4.760;2022-12-29T08:28:07;10.40;;;1.80;;
20671;SDS011;10495;50.922;4.760;2022-12-29T08:30:33;8.73;;;2.30;;
20671;SDS011;10495;50.922;4.760;2022-12-29T08:32:58;7.43;;;1.70;;
20671;SDS011;10495;50.922;4.760;2022-12-29T08:35:24;7.97;;;1.77;;
20671;SDS011;10495;50.922;4.760;2022-12-29T08:37:49;7.90;;;1.73;;
20671;SDS011;10495;50.922;4.760;2022-12-29T08:40:15;4.80;;;1.50;;
20671;SDS011;10495;50.922;4.760;2022-12-29T08:42:41;8.27;;;1.60;;
20671;SDS011;10495;50.922;4.760;2022-12-29T08:45:06;6.23;;;1.47;;
20671;SDS011;10495;50.922;4.760;2022-12-29T08:47:33;3.37;;;1.47;;
20671;SDS011;10495;50.922;4.760;2022-12-29T08:49:59;5.40;;;1.60;;
20671;SDS011;10495;50.922;4.760;2022-12-29T08:52:24;10.07;;;1.50;;
20671;SDS011;10495;50.922;4.760;2022-12-29T08:54:50;6.37;;;1.57;;
20671;SDS011;10495;50.922;4.760;2022-12-29T08:57:16;7.53;;;2.50;;
20671;SDS011;10495;50.922;4.760;2022-12-29T08:59:42;6.13;;;1.47;;
20671;SDS011;10495;50.922;4.760;2022-12-29T09:02:11;10.70;;;2.20;;
20671;SDS011;10495;50.922;4.760;2022-12-29T09:04:37;8.70;;;1.73;;
20671;SDS011;10495;50.922;4.760;2022-12-29T09:07:03;6.60;;;1.43;;
20671;SDS011;10495;50.922;4.760;2022-12-29T09:09:28;8.40;;;1.70;;
20671;SDS011;10495;50.922;4.760;2022-12-29T09:11:54;5.60;;;1.73;;
20671;SDS011;10495;50.922;4.760;2022-12-29T09:14:19;12.23;;;3.20;;
20671;SDS011;10495;50.922;4.760;2022-12-29T09:16:46;6.43;;;1.70;;
20671;SDS011;10495;50.922;4.760;2022-12-29T09:19:30;8.60;;;2.27;;
20671;SDS011;10495;50.922;4.760;2022-12-29T09:21:56;5.13;;;2.00;;
20671;SDS011;10495;50.922;4.760;2022-12-29T09:24:22;11.03;;;1.57;;
20671;SDS011;10495;50.922;4.760;2022-12-29T09:26:47;8.90;;;2.33;;
20671;SDS011;10495;50.922;4.760;2022-12-29T09:29:13;16.10;;;2.67;;
20671;SDS011;10495;50.922;4.760;2022-12-29T09:31:38;6.90;;;1.83;;
20671;SDS011;10495;50.922;4.760;2022-12-29T09:34:04;5.80;;;1.67;;
20671;SDS011;10495;50.922;4.760;2022-12-29T09:36:29;7.07;;;1.60;;
20671;SDS011;10495;50.922;4.760;2022-12-29T09:38:55;4.90;;;1.20;;
20671;SDS011;10495;50.922;4.760;2022-12-29T09:41:23;5.73;;;1.50;;
20671;SDS011;10495;50.922;4.760;2022-12-29T09:44:13;8.33;;;1.87;;
20671;SDS011;10495;50.922;4.760;2022-12-29T09:46:49;7.43;;;1.60;;
20671;SDS011;10495;50.922;4.760;2022-12-29T09:49:23;6.73;;;1.70;;
20671;SDS011;10495;50.922;4.760;2022-12-29T09:52:11;10.47;;;1.93;;
20671;SDS011;10495;50.922;4.760;2022-12-29T09:59:59;8.03;;;1.93;;
20671;SDS011;10495;50.922;4.760;2022-12-29T10:02:54;6.33;;;1.80;;
20671;SDS011;10495;50.922;4.760;2022-12-29T10:05:27;10.30;;;2.33;;
20671;SDS011;10495;50.922;4.760;2022-12-29T10:22:07;6.47;;;1.67;;
20671;SDS011;10495;50.922;4.760;2022-12-29T10:24:58;10.67;;;2.20;;
20671;SDS011;10495;50.922;4.760;2022-12-29T10:27:28;6.77;;;1.97;;
20671;SDS011;10495;50.922;4.760;2022-12-29T10:29:57;8.13;;;1.67;;
20671;SDS011;10495;50.922;4.760;2022-12-29T10:35:10;9.00;;;1.80;;
20671;SDS011;10495;50.922;4.760;2022-12-29T10:37:45;3.53;;;1.30;;
20671;SDS011;10495;50.922;4.760;2022-12-29T10:40:26;6.70;;;1.50;;
20671;SDS011;10495;50.922;4.760;2022-12-29T10:43:18;7.97;;;2.10;;
20671;SDS011;10495;50.922;4.760;2022-12-29T10:45:58;10.90;;;2.00;;
20671;SDS011;10495;50.922;4.760;2022-12-29T10:48:30;5.07;;;1.53;;
20671;SDS011;10495;50.922;4.760;2022-12-29T10:50:58;9.50;;;2.23;;
20671;SDS011;10495;50.922;4.760;2022-12-29T10:53:40;7.10;;;1.50;;
20671;SDS011;10495;50.922;4.760;2022-12-29T10:56:29;8.83;;;2.43;;
20671;SDS011;10495;50.922;4.760;2022-12-29T10:58:57;6.03;;;1.57;;
20671;SDS011;10495;50.922;4.760;2022-12-29T11:01:29;4.43;;;1.70;;
20671;SDS011;10495;50.922;4.760;2022-12-29T11:04:03;4.97;;;1.40;;
20671;SDS011;10495;50.922;4.760;2022-12-29T11:06:42;4.43;;;1.43;;
20671;SDS011;10495;50.922;4.760;2022-12-29T11:11:39;5.90;;;1.57;;
20671;SDS011;10495;50.922;4.760;2022-12-29T11:14:12;8.17;;;1.97;;
20671;SDS011;10495;50.922;4.760;2022-12-29T11:17:05;7.80;;;1.87;;
20671;SDS011;10495;50.922;4.760;2022-12-29T11:19:32;5.17;;;1.50;;
20671;SDS011;10495;50.922;4.760;2022-12-29T11:24:47;9.33;;;2.10;;
20671;SDS011;10495;50.922;4.760;2022-12-29T11:27:18;5.50;;;1.43;;
20671;SDS011;10495;50.922;4.760;2022-12-29T11:29:51;7.10;;;1.77;;
20671;SDS011;10495;50.922;4.760;2022-12-29T11:32:25;9.10;;;1.93;;
20671;SDS011;10495;50.922;4.760;2022-12-29T11:34:52;6.93;;;1.87;;
20671;SDS011;10495;50.922;4.760;2022-12-29T11:37:19;10.73;;;1.80;;
20671;SDS011;10495;50.922;4.760;2022-12-29T11:40:01;8.13;;;1.90;;
20671;SDS011;10495;50.922;4.760;2022-12-29T11:45:19;7.27;;;1.53;;
20671;SDS011;10495;50.922;4.760;2022-12-29T11:47:48;5.03;;;1.73;;
20671;SDS011;10495;50.922;4.760;2022-12-29T11:50:18;7.77;;;1.90;;
20671;SDS011;10495;50.922;4.760;2022-12-29T11:52:50;8.13;;;1.50;;
20671;SDS011;10495;50.922;4.760;2022-12-29T11:55:24;4.93;;;1.60;;
20671;SDS011;10495;50.922;4.760;2022-12-29T11:57:51;6.17;;;3.30;;
20671;SDS011;10495;50.922;4.760;2022-12-29T12:00:19;9.87;;;1.93;;
20671;SDS011;10495;50.922;4.760;2022-12-29T12:08:19;6.67;;;1.90;;
20671;SDS011;10495;50.922;4.760;2022-12-29T12:10:51;10.80;;;2.20;;
20671;SDS011;10495;50.922;4.760;2022-12-29T12:13:29;5.53;;;1.93;;
20671;SDS011;10495;50.922;4.760;2022-12-29T12:16:09;9.20;;;2.57;;
20671;SDS011;10495;50.922;4.760;2022-12-29T12:18:42;5.83;;;1.80;;
20671;SDS011;10495;50.922;4.760;2022-12-29T12:24:15;4.57;;;1.57;;
20671;SDS011;10495;50.922;4.760;2022-12-29T12:29:34;9.60;;;2.17;;
20671;SDS011;10495;50.922;4.760;2022-12-29T12:32:17;7.43;;;2.03;;
20671;SDS011;10495;50.922;4.760;2022-12-29T12:35:11;7.80;;;2.17;;
20671;SDS011;10495;50.922;4.760;2022-12-29T12:40:42;7.97;;;2.13;;
20671;SDS011;10495;50.922;4.760;2022-12-29T12:53:37;8.50;;;1.40;;
20671;SDS011;10495;50.922;4.760;2022-12-29T12:56:19;8.33;;;2.20;;
20671;SDS011;10495;50.922;4.760;2022-12-29T13:01:48;6.13;;;1.50;;
20671;SDS011;10495;50.922;4.760;2022-12-29T13:04:32;8.73;;;1.67;;
20671;SDS011;10495;50.922;4.760;2022-12-29T13:10:19;5.43;;;1.67;;
20671;SDS011;10495;50.922;4.760;2022-12-29T13:21:40;8.03;;;1.63;;
20671;SDS011;10495;50.922;4.760;2022-12-29T13:24:32;8.30;;;1.83;;
20671;SDS011;10495;50.922;4.760;2022-12-29T13:32:37;6.80;;;1.63;;
20671;SDS011;10495;50.922;4.760;2022-12-29T13:35:18;6.87;;;1.27;;
20671;SDS011;10495;50.922;4.760;2022-12-29T13:41:06;4.10;;;1.47;;
20671;SDS011;10495;50.922;4.760;2022-12-29T13:43:35;5.13;;;1.47;;
20671;SDS011;10495;50.922;4.760;2022-12-29T13:46:07;10.57;;;2.00;;
20671;SDS011;10495;50.922;4.760;2022-12-29T13:51:18;8.23;;;1.67;;
20671;SDS011;10495;50.922;4.760;2022-12-29T13:53:53;6.73;;;1.67;;
20671;SDS011;10495;50.922;4.760;2022-12-29T14:02:16;9.27;;;2.00;;
20671;SDS011;10495;50.922;4.760;2022-12-29T14:05:05;7.10;;;1.77;;
20671;SDS011;10495;50.922;4.760;2022-12-29T14:07:47;6.50;;;2.00;;
20671;SDS011;10495;50.922;4.760;2022-12-29T14:10:34;5.07;;;1.53;;
20671;SDS011;10495;50.922;4.760;2022-12-29T14:15:37;9.17;;;2.20;;
20671;SDS011;10495;50.922;4.760;2022-12-29T14:18:17;8.03;;;2.20;;
20671;SDS011;10495;50.922;4.760;2022-12-29T14:23:34;9.73;;;2.00;;
20671;SDS011;10495;50.922;4.760;2022-12-29T14:28:30;6.70;;;1.83;;
20671;SDS011;10495;50.922;4.760;2022-12-29T14:30:59;7.47;;;2.00;;
20671;SDS011;10495;50.922;4.760;2022-12-29T14:33:27;5.00;;;2.10;;
20671;SDS011;10495;50.922;4.760;2022-12-29T14:35:54;11.63;;;1.93;;
20671;SDS011;10495;50.922;4.760;2022-12-29T14:38:25;8.77;;;1.77;;
20671;SDS011;10495;50.922;4.760;2022-12-29T14:40:53;12.53;;;1.97;;
20671;SDS011;10495;50.922;4.760;2022-12-29T14:44:19;10.57;;;2.40;;
20671;SDS011;10495;50.922;4.760;2022-12-29T14:46:46;10.17;;;2.67;;
20671;SDS011;10495;50.922;4.760;2022-12-29T14:49:19;6.53;;;2.03;;
20671;SDS011;10495;50.922;4.760;2022-12-29T14:51:48;12.33;;;2.83;;
20671;SDS011;10495;50.922;4.760;2022-12-29T14:57:03;9.83;;;2.70;;
20671;SDS011;10495;50.922;4.760;2022-12-29T14:59:33;8.70;;;2.90;;
20671;SDS011;10495;50.922;4.760;2022-12-29T15:02:01;10.97;;;2.70;;
20671;SDS011;10495;50.922;4.760;2022-12-29T15:04:37;9.97;;;2.40;;
20671;SDS011;10495;50.922;4.760;2022-12-29T15:07:06;9.97;;;3.03;;
20671;SDS011;10495;50.922;4.760;2022-12-29T15:09:35;10.40;;;2.23;;
20671;SDS011;10495;50.922;4.760;2022-12-29T15:14:47;3.30;;;1.50;;
20671;SDS011;10495;50.922;4.760;2022-12-29T15:17:39;5.17;;;1.70;;
20671;SDS011;10495;50.922;4.760;2022-12-29T15:22:56;2.53;;;1.37;;
20671;SDS011;10495;50.922;4.760;2022-12-29T15:25:25;3.43;;;1.40;;
20671;SDS011;10495;50.922;4.760;2022-12-29T15:28:00;5.47;;;1.60;;
20671;SDS011;10495;50.922;4.760;2022-12-29T15:30:27;6.83;;;1.60;;
20671;SDS011;10495;50.922;4.760;2022-12-29T15:32:53;3.30;;;1.60;;
20671;SDS011;10495;50.922;4.760;2022-12-29T15:37:53;3.40;;;1.00;;
20671;SDS011;10495;50.922;4.760;2022-12-29T15:40:23;7.57;;;1.63;;
20671;SDS011;10495;50.922;4.760;2022-12-29T15:42:54;7.40;;;1.73;;
20671;SDS011;10495;50.922;4.760;2022-12-29T15:45:32;5.83;;;1.63;;
20671;SDS011;10495;50.922;4.760;2022-12-29T15:48:00;5.50;;;1.87;;
20671;SDS011;10495;50.922;4.760;2022-12-29T15:50:27;6.43;;;1.67;;
20671;SDS011;10495;50.922;4.760;2022-12-29T15:52:55;3.93;;;1.20;;
20671;SDS011;10495;50.922;4.760;2022-12-29T15:55:30;6.17;;;1.60;;
20671;SDS011;10495;50.922;4.760;2022-12-29T15:58:01;4.27;;;1.70;;
20671;SDS011;10495;50.922;4.760;2022-12-29T16:00:30;4.70;;;1.53;;
20671;SDS011;10495;50.922;4.760;2022-12-29T16:02:58;3.50;;;1.17;;
20671;SDS011;10495;50.922;4.760;2022-12-29T16:05:37;5.30;;;1.50;;
20671;SDS011;10495;50.922;4.760;2022-12-29T16:08:15;7.07;;;1.60;;
20671;SDS011;10495;50.922;4.760;2022-12-29T16:10:57;4.07;;;1.30;;
20671;SDS011;10495;50.922;4.760;2022-12-29T16:13:26;4.20;;;1.10;;
20671;SDS011;10495;50.922;4.760;2022-12-29T16:18:46;3.33;;;1.53;;
20671;SDS011;10495;50.922;4.760;2022-12-29T16:21:33;3.43;;;1.50;;
20671;SDS011;10495;50.922;4.760;2022-12-29T16:24:01;4.83;;;1.70;;
20671;SDS011;10495;50.922;4.760;2022-12-29T16:26:31;6.30;;;1.70;;
20671;SDS011;10495;50.922;4.760;2022-12-29T16:28:58;4.60;;;1.57;;
20671;SDS011;10495;50.922;4.760;2022-12-29T16:31:38;4.77;;;2.63;;
20671;SDS011;10495;50.922;4.760;2022-12-29T16:37:44;6.20;;;1.97;;
20671;SDS011;10495;50.922;4.760;2022-12-29T16:39:53;8.87;;;2.10;;
20671;SDS011;10495;50.922;4.760;2022-12-29T16:43:18;5.37;;;2.37;;
20671;SDS011;10495;50.922;4.760;2022-12-29T16:48:09;5.57;;;2.00;;
20671;SDS011;10495;50.922;4.760;2022-12-29T16:50:42;6.47;;;2.80;;
20671;SDS011;10495;50.922;4.760;2022-12-29T16:53:24;7.63;;;2.43;;
20671;SDS011;10495;50.922;4.760;2022-12-29T16:55:52;6.50;;;2.40;;
20671;SDS011;10495;50.922;4.760;2022-12-29T16:58:20;10.97;;;2.53;;
20671;SDS011;10495;50.922;4.760;2022-12-29T17:00:48;10.17;;;2.43;;
20671;SDS011;10495;50.922;4.760;2022-12-29T17:03:14;10.17;;;3.03;;
20671;SDS011;10495;50.922;4.760;2022-12-29T17:05:40;9.13;;;3.33;;
20671;SDS011;10495;50.922;4.760;2022-12-29T17:08:40;10.93;;;2.77;;
20671;SDS011;10495;50.922;4.760;2022-12-29T17:11:13;13.03;;;2.93;;
20671;SDS011;10495;50.922;4.760;2022-12-29T17:14:01;9.17;;;3.27;;
20671;SDS011;10495;50.922;4.760;2022-12-29T17:16:27;10.60;;;3.03;;
20671;SDS011;10495;50.922;4.760;2022-12-29T17:18:53;14.27;;;3.33;;
20671;SDS011;10495;50.922;4.760;2022-12-29T17:21:18;10.47;;;3.00;;
20671;SDS011;10495;50.922;4.760;2022-12-29T17:23:44;12.53;;;2.70;;
20671;SDS011;10495;50.922;4.760;2022-12-29T17:26:10;7.97;;;2.67;;
20671;SDS011;10495;50.922;4.760;2022-12-29T17:28:37;8.77;;;3.20;;
20671;SDS011;10495;50.922;4.760;2022-12-29T17:31:03;10.63;;;2.83;;
20671;SDS011;10495;50.922;4.760;2022-12-29T17:33:34;8.67;;;2.97;;
20671;SDS011;10495;50.922;4.760;2022-12-29T17:36:02;16.23;;;2.70;;